createdAt,value
2018-12-17T00:00:10.391Z,15.3
2018-12-17T00:01:12.568Z,15.3
2018-12-17T00:02:14.720Z,15.3
2018-12-17T00:03:17.032Z,15.3
2018-12-17T00:04:19.463Z,15.3
2018-12-17T00:05:21.903Z,15.4
2018-12-17T00:06:24.323Z,15.3
2018-12-17T00:07:26.483Z,15.3
2018-12-17T00:09:33.902Z,15.3
2018-12-17T00:10:36.062Z,15.3
2018-12-17T00:11:38.193Z,15.3
2018-12-17T00:12:40.621Z,15.3
2018-12-17T00:13:42.772Z,15.4
2018-12-17T00:14:45.191Z,15.3
2018-12-17T00:15:47.350Z,15.5
2018-12-17T00:16:49.771Z,15.3
2018-12-17T00:17:52.193Z,15.4
2018-12-17T00:18:54.619Z,15.4
2018-12-17T00:19:56.767Z,15.5
2018-12-17T00:20:59.193Z,15.3
2018-12-17T00:22:01.623Z,15.4
2018-12-17T00:23:03.521Z,15.3
2018-12-17T00:24:05.952Z,15.4
2018-12-17T00:25:08.113Z,15.4
2018-12-17T00:26:10.547Z,15.4
2018-12-17T00:27:12.968Z,15.4
2018-12-17T00:28:15.385Z,15.4
2018-12-17T00:29:17.819Z,15.4
2018-12-17T00:30:20.242Z,15.3
2018-12-17T00:31:22.673Z,15.3
2018-12-17T00:32:24.829Z,15.3
2018-12-17T00:33:27.251Z,15.3
2018-12-17T00:34:29.682Z,15.5
2018-12-17T00:35:32.103Z,15.5
2018-12-17T00:36:34.519Z,15.3
2018-12-17T00:37:36.701Z,15.4
2018-12-17T00:38:39.113Z,15.5
2018-12-17T00:39:41.005Z,15.4
2018-12-17T00:40:43.433Z,15.3
2018-12-17T00:41:45.569Z,15.5
2018-12-17T00:42:47.994Z,15.5
2018-12-17T00:43:50.135Z,15.5
2018-12-17T00:44:52.303Z,15.6
2018-12-17T00:45:54.461Z,15.5
2018-12-17T00:46:56.631Z,15.6
2018-12-17T00:47:58.778Z,15.4
2018-12-17T00:49:00.936Z,15.6
2018-12-17T00:50:03.357Z,15.6
2018-12-17T00:51:05.523Z,15.6
2018-12-17T00:52:07.949Z,15.6
2018-12-17T00:53:10.100Z,15.5
2018-12-17T00:54:12.253Z,15.6
2018-12-17T00:55:14.409Z,15.7
2018-12-17T00:56:16.837Z,15.6
2018-12-17T00:57:19.260Z,15.6
2018-12-17T00:58:21.467Z,15.6
2018-12-17T00:59:23.893Z,15.8
2018-12-17T01:00:26.308Z,15.6
2018-12-17T01:01:28.747Z,15.6
2018-12-17T01:02:31.174Z,15.7
2018-12-17T01:03:33.614Z,15.6
2018-12-17T01:04:36.033Z,15.6
2018-12-17T01:05:38.480Z,15.6
2018-12-17T01:06:40.902Z,15.7
2018-12-17T01:07:43.326Z,15.7
2018-12-17T01:08:45.760Z,15.7
2018-12-17T01:09:47.914Z,15.6
2018-12-17T01:10:50.071Z,15.7
2018-12-17T01:11:51.968Z,15.7
2018-12-17T01:12:54.391Z,15.7
2018-12-17T01:13:56.821Z,15.5
2018-12-17T01:14:58.730Z,15.7
2018-12-17T01:16:00.873Z,15.7
2018-12-17T01:17:02.746Z,15.7
2018-12-17T01:18:04.348Z,15.6
2018-12-17T01:19:06.776Z,15.8
2018-12-17T01:20:09.189Z,15.6
2018-12-17T01:21:11.663Z,15.7
2018-12-17T01:22:14.092Z,15.8
2018-12-17T01:23:16.529Z,15.7
2018-12-17T01:24:18.963Z,15.7
2018-12-17T01:25:21.385Z,15.8
2018-12-17T01:26:23.816Z,15.7
2018-12-17T01:27:25.941Z,15.7
2018-12-17T01:28:28.365Z,15.7
2018-12-17T01:29:30.524Z,15.7
2018-12-17T01:30:32.678Z,15.7
2018-12-17T01:31:35.117Z,15.7
2018-12-17T01:32:37.543Z,15.7
2018-12-17T01:33:39.703Z,15.8
2018-12-17T01:34:41.863Z,15.7
2018-12-17T01:35:44.288Z,15.7
2018-12-17T01:36:46.194Z,15.7
2018-12-17T01:37:48.347Z,15.7
2018-12-17T01:38:50.780Z,15.7
2018-12-17T01:39:53.205Z,15.7
2018-12-17T01:40:55.343Z,15.8
2018-12-17T01:41:57.770Z,15.7
2018-12-17T01:42:59.913Z,15.7
2018-12-17T01:44:02.342Z,15.7
2018-12-17T01:45:04.506Z,15.8
2018-12-17T01:46:06.693Z,15.8
2018-12-17T01:47:08.263Z,15.8
2018-12-17T01:48:10.692Z,15.7
2018-12-17T01:49:12.828Z,15.7
2018-12-17T01:50:15.253Z,15.7
2018-12-17T01:51:17.689Z,15.8
2018-12-17T01:52:19.837Z,15.8
2018-12-17T01:53:21.989Z,15.8
2018-12-17T01:54:24.421Z,15.7
2018-12-17T01:55:26.854Z,15.7
2018-12-17T01:56:29.278Z,15.8
2018-12-17T01:57:31.423Z,15.7
2018-12-17T01:58:33.848Z,15.7
2018-12-17T01:59:36.269Z,15.8
2018-12-17T02:00:38.400Z,15.8
2018-12-17T02:01:40.552Z,15.7
2018-12-17T02:02:42.979Z,15.7
2018-12-17T02:03:45.409Z,15.7
2018-12-17T02:04:47.572Z,15.7
2018-12-17T02:05:50.001Z,15.7
2018-12-17T02:06:52.431Z,15.7
2018-12-17T02:07:54.610Z,15.8
2018-12-17T02:08:56.778Z,15.8
2018-12-17T02:09:58.928Z,15.8
2018-12-17T02:11:01.346Z,15.8
2018-12-17T02:12:03.502Z,15.7
2018-12-17T02:13:05.640Z,15.8
2018-12-17T02:14:07.762Z,15.8
2018-12-17T02:15:09.613Z,15.8
2018-12-17T02:16:11.778Z,15.8
2018-12-17T02:17:14.207Z,15.8
2018-12-17T02:18:16.367Z,15.8
2018-12-17T02:19:18.793Z,15.8
2018-12-17T02:20:21.213Z,15.8
2018-12-17T02:21:23.642Z,15.8
2018-12-17T02:22:25.802Z,15.8
2018-12-17T02:23:27.963Z,15.8
2018-12-17T02:24:29.829Z,15.8
2018-12-17T02:25:32.256Z,15.7
2018-12-17T02:26:34.409Z,15.9
2018-12-17T02:27:36.831Z,15.9
2018-12-17T02:28:38.729Z,15.8
2018-12-17T02:29:41.161Z,15.8
2018-12-17T02:30:43.298Z,15.8
2018-12-17T02:31:45.208Z,15.8
2018-12-17T02:32:47.364Z,15.8
2018-12-17T02:33:49.792Z,15.8
2018-12-17T02:34:52.220Z,15.8
2018-12-17T02:35:54.388Z,15.8
2018-12-17T02:36:56.813Z,15.8
2018-12-17T02:37:58.699Z,15.8
2018-12-17T02:39:01.124Z,15.7
2018-12-17T02:40:03.281Z,15.8
2018-12-17T02:41:05.757Z,15.8
2018-12-17T02:42:08.181Z,15.8
2018-12-17T02:43:10.415Z,15.8
2018-12-17T02:44:12.834Z,15.8
2018-12-17T02:45:15.252Z,15.9
2018-12-17T02:46:31.765Z,15.9
2018-12-17T02:47:34.201Z,15.8
2018-12-17T02:48:36.624Z,15.8
2018-12-17T02:49:39.127Z,15.9
2018-12-17T02:50:41.560Z,15.8
2018-12-17T02:51:43.982Z,15.8
2018-12-17T02:52:46.400Z,15.8
2018-12-17T02:53:48.815Z,15.8
2018-12-17T02:54:51.251Z,15.8
2018-12-17T02:55:53.142Z,15.9
2018-12-17T02:56:55.290Z,15.8
2018-12-17T02:57:57.725Z,15.8
2018-12-17T02:58:59.868Z,15.9
2018-12-17T03:00:02.304Z,15.8
2018-12-17T03:01:04.758Z,15.8
2018-12-17T03:02:06.917Z,15.8
2018-12-17T03:03:09.058Z,15.8
2018-12-17T03:04:11.227Z,15.8
2018-12-17T03:05:13.393Z,15.8
2018-12-17T03:06:15.545Z,15.9
2018-12-17T03:07:17.971Z,15.9
2018-12-17T03:08:20.132Z,15.8
2018-12-17T03:09:22.563Z,15.9
2018-12-17T03:10:24.986Z,15.9
2018-12-17T03:11:27.411Z,16
2018-12-17T03:12:29.830Z,15.9
2018-12-17T03:13:32.251Z,15.8
2018-12-17T03:14:34.118Z,15.8
2018-12-17T03:15:36.553Z,15.8
2018-12-17T03:16:38.702Z,15.9
2018-12-17T03:17:40.567Z,15.8
2018-12-17T03:18:42.153Z,15.8
2018-12-17T03:19:44.314Z,15.8
2018-12-17T03:20:46.466Z,15.9
2018-12-17T03:21:48.623Z,15.9
2018-12-17T03:22:51.042Z,15.8
2018-12-17T03:23:53.493Z,15.8
2018-12-17T03:24:55.666Z,15.9
2018-12-17T03:25:57.832Z,15.9
2018-12-17T03:26:59.983Z,15.9
2018-12-17T03:28:02.402Z,15.8
2018-12-17T03:29:04.557Z,15.9
2018-12-17T03:30:07.013Z,15.8
2018-12-17T03:31:09.436Z,15.8
2018-12-17T03:32:11.862Z,15.8
2018-12-17T03:33:14.005Z,15.8
2018-12-17T03:34:16.153Z,15.9
2018-12-17T03:35:18.302Z,16
2018-12-17T03:36:20.728Z,15.8
2018-12-17T03:37:22.893Z,15.8
2018-12-17T03:38:25.057Z,15.9
2018-12-17T03:39:26.920Z,15.9
2018-12-17T03:40:29.093Z,16.1
2018-12-17T03:41:31.300Z,15.9
2018-12-17T03:42:33.722Z,15.9
2018-12-17T03:43:35.870Z,15.8
2018-12-17T03:44:38.301Z,15.8
2018-12-17T03:45:40.444Z,15.9
2018-12-17T03:46:42.872Z,15.8
2018-12-17T03:47:45.472Z,15.8
2018-12-17T03:48:47.620Z,15.9
2018-12-17T03:49:49.513Z,16
2018-12-17T03:50:51.949Z,15.9
2018-12-17T03:51:54.372Z,15.9
2018-12-17T03:52:56.800Z,15.8
2018-12-17T03:53:58.682Z,15.9
2018-12-17T03:55:00.562Z,15.8
2018-12-17T03:56:02.991Z,15.8
2018-12-17T03:57:05.419Z,15.9
2018-12-17T03:58:07.563Z,15.9
2018-12-17T03:59:09.984Z,16.1
2018-12-17T04:00:11.840Z,15.8
2018-12-17T04:01:14.267Z,15.9
2018-12-17T04:02:16.127Z,15.9
2018-12-17T04:03:18.004Z,15.8
2018-12-17T04:04:20.423Z,15.8
2018-12-17T04:05:22.841Z,15.9
2018-12-17T04:06:24.968Z,15.8
2018-12-17T04:07:27.153Z,16
2018-12-17T04:08:29.585Z,15.8
2018-12-17T04:09:32.010Z,15.9
2018-12-17T04:10:34.151Z,15.9
2018-12-17T04:11:36.570Z,15.9
2018-12-17T04:12:39.002Z,15.9
2018-12-17T04:13:41.425Z,16
2018-12-17T04:14:43.571Z,15.9
2018-12-17T04:15:45.454Z,16
2018-12-17T04:16:47.644Z,15.9
2018-12-17T04:17:50.068Z,15.9
2018-12-17T04:18:52.196Z,16
2018-12-17T04:19:54.349Z,15.8
2018-12-17T04:20:56.502Z,15.9
2018-12-17T04:21:58.649Z,16
2018-12-17T04:23:00.787Z,16
2018-12-17T04:24:02.930Z,15.9
2018-12-17T04:25:05.365Z,16
2018-12-17T04:26:07.794Z,15.9
2018-12-17T04:27:09.942Z,15.8
2018-12-17T04:28:12.366Z,15.9
2018-12-17T04:29:14.804Z,15.8
2018-12-17T04:30:17.225Z,15.9
2018-12-17T04:31:19.662Z,15.8
2018-12-17T04:32:22.088Z,15.9
2018-12-17T04:33:24.250Z,15.9
2018-12-17T04:34:26.683Z,15.8
2018-12-17T04:35:29.097Z,15.9
2018-12-17T04:36:31.250Z,16.1
2018-12-17T04:37:32.850Z,15.9
2018-12-17T04:38:35.277Z,16
2018-12-17T04:39:37.704Z,15.8
2018-12-17T04:40:40.133Z,15.9
2018-12-17T04:41:42.101Z,16
2018-12-17T04:42:44.240Z,15.9
2018-12-17T04:43:46.364Z,15.8
2018-12-17T04:44:48.785Z,15.8
2018-12-17T04:45:50.990Z,15.9
2018-12-17T04:46:53.422Z,15.9
2018-12-17T04:47:55.855Z,15.9
2018-12-17T04:48:57.430Z,15.9
2018-12-17T04:49:59.589Z,15.8
2018-12-17T04:51:01.191Z,15.8
2018-12-17T04:52:03.341Z,15.8
2018-12-17T04:53:05.769Z,15.8
2018-12-17T04:54:07.898Z,15.9
2018-12-17T04:55:10.312Z,15.8
2018-12-17T04:56:12.464Z,15.9
2018-12-17T04:57:14.878Z,15.9
2018-12-17T04:58:17.320Z,15.7
2018-12-17T04:59:19.742Z,15.8
2018-12-17T05:00:22.158Z,15.8
2018-12-17T05:01:24.563Z,15.8
2018-12-17T05:02:27.042Z,15.9
2018-12-17T05:03:29.457Z,15.8
2018-12-17T05:04:31.887Z,15.9
2018-12-17T05:05:33.756Z,15.7
2018-12-17T05:06:36.174Z,15.9
2018-12-17T05:07:38.592Z,15.9
2018-12-17T05:08:41.027Z,15.8
2018-12-17T05:09:45.012Z,15.8
2018-12-17T05:10:47.180Z,15.8
2018-12-17T05:11:49.315Z,15.8
2018-12-17T05:12:51.731Z,15.8
2018-12-17T05:13:53.878Z,15.8
2018-12-17T05:14:56.302Z,15.7
2018-12-17T05:15:58.718Z,15.8
2018-12-17T05:17:00.662Z,15.7
2018-12-17T05:18:03.148Z,15.8
2018-12-17T05:19:06.188Z,15.8
2018-12-17T05:20:08.681Z,15.8
2018-12-17T05:21:10.836Z,15.8
2018-12-17T05:22:13.251Z,15.8
2018-12-17T05:23:15.138Z,15.8
2018-12-17T05:24:17.311Z,15.8
2018-12-17T05:25:19.210Z,15.8
2018-12-17T05:26:21.639Z,15.7
2018-12-17T05:27:23.790Z,15.8
2018-12-17T05:28:26.215Z,15.8
2018-12-17T05:29:28.628Z,15.8
2018-12-17T05:30:31.054Z,15.8
2018-12-17T05:31:33.475Z,15.8
2018-12-17T05:32:35.348Z,15.7
2018-12-17T05:33:37.782Z,15.7
2018-12-17T05:34:40.211Z,15.8
2018-12-17T05:35:42.364Z,15.8
2018-12-17T05:36:44.511Z,15.7
2018-12-17T05:37:46.947Z,15.8
2018-12-17T05:38:49.104Z,15.7
2018-12-17T05:39:51.531Z,15.8
2018-12-17T05:40:53.693Z,15.7
2018-12-17T05:41:55.591Z,15.7
2018-12-17T05:42:57.736Z,15.7
2018-12-17T05:43:59.906Z,15.8
2018-12-17T05:45:02.339Z,15.7
2018-12-17T05:46:04.782Z,15.8
2018-12-17T05:47:07.218Z,15.8
2018-12-17T05:48:09.649Z,15.8
2018-12-17T05:49:12.673Z,15.7
2018-12-17T05:50:15.092Z,15.8
2018-12-17T05:51:17.521Z,15.8
2018-12-17T05:52:19.948Z,15.7
2018-12-17T05:53:22.165Z,15.7
2018-12-17T05:54:24.603Z,15.7
2018-12-17T05:55:26.758Z,15.9
2018-12-17T05:56:28.913Z,15.7
2018-12-17T05:57:31.333Z,15.8
2018-12-17T05:58:33.216Z,15.6
2018-12-17T05:59:35.371Z,15.7
2018-12-17T06:00:37.814Z,15.7
2018-12-17T06:01:39.991Z,15.8
2018-12-17T06:02:42.411Z,15.8
2018-12-17T06:03:44.844Z,15.7
2018-12-17T06:04:47.261Z,15.7
2018-12-17T06:05:49.406Z,15.7
2018-12-17T06:06:51.288Z,15.7
2018-12-17T06:07:53.710Z,15.7
2018-12-17T06:08:56.155Z,15.8
2018-12-17T06:09:58.600Z,15.7
2018-12-17T06:11:01.043Z,15.7
2018-12-17T06:12:03.460Z,15.7
2018-12-17T06:13:05.620Z,15.7
2018-12-17T06:14:07.501Z,15.7
2018-12-17T06:15:09.650Z,15.8
2018-12-17T06:16:11.791Z,15.7
2018-12-17T06:17:14.220Z,15.8
2018-12-17T06:18:16.687Z,15.7
2018-12-17T06:19:19.156Z,15.8
2018-12-17T06:20:21.053Z,15.8
2018-12-17T06:21:23.491Z,15.7
2018-12-17T06:22:26.000Z,15.7
2018-12-17T06:23:28.438Z,15.7
2018-12-17T06:24:30.684Z,15.7
2018-12-17T06:25:33.101Z,15.8
2018-12-17T06:26:35.543Z,15.7
2018-12-17T06:27:39.163Z,15.8
2018-12-17T06:28:41.607Z,15.7
2018-12-17T06:29:43.458Z,15.7
2018-12-17T06:30:45.907Z,15.8
2018-12-17T06:31:48.344Z,15.8
2018-12-17T06:32:50.766Z,15.8
2018-12-17T06:33:52.908Z,15.7
2018-12-17T06:34:55.328Z,15.8
2018-12-17T06:35:57.751Z,15.7
2018-12-17T06:36:59.953Z,15.7
2018-12-17T06:38:02.143Z,15.7
2018-12-17T06:39:04.612Z,15.7
2018-12-17T06:41:12.031Z,15.7
2018-12-17T06:42:29.141Z,15.8
2018-12-17T06:43:31.307Z,15.7
2018-12-17T06:44:33.477Z,15.7
2018-12-17T06:45:35.919Z,15.7
2018-12-17T06:46:38.373Z,15.7
2018-12-17T06:47:40.811Z,15.8
2018-12-17T06:48:43.292Z,15.7
2018-12-17T06:49:45.814Z,15.7
2018-12-17T06:50:47.954Z,15.7
2018-12-17T06:51:49.552Z,15.7
2018-12-17T06:52:51.734Z,15.7
2018-12-17T06:53:53.607Z,15.7
2018-12-17T06:54:55.786Z,15.6
2018-12-17T06:55:57.932Z,15.7
2018-12-17T06:57:00.360Z,15.6
2018-12-17T06:58:02.791Z,15.7
2018-12-17T06:59:04.672Z,15.7
2018-12-17T07:00:07.123Z,15.6
2018-12-17T07:01:09.303Z,15.7
2018-12-17T07:02:11.732Z,15.6
2018-12-17T07:03:13.905Z,15.6
2018-12-17T07:04:16.329Z,15.7
2018-12-17T07:05:18.761Z,15.7
2018-12-17T07:06:21.178Z,15.7
2018-12-17T07:07:23.625Z,15.7
2018-12-17T07:08:25.779Z,15.6
2018-12-17T07:09:28.221Z,15.7
2018-12-17T07:10:30.414Z,15.6
2018-12-17T07:11:32.857Z,15.6
2018-12-17T07:12:35.014Z,15.7
2018-12-17T07:13:37.443Z,15.6
2018-12-17T07:14:39.871Z,15.7
2018-12-17T07:15:42.021Z,15.7
2018-12-17T07:16:44.454Z,15.7
2018-12-17T07:17:46.597Z,15.8
2018-12-17T07:18:48.469Z,15.7
2018-12-17T07:19:50.065Z,15.6
2018-12-17T07:20:52.222Z,15.7
2018-12-17T07:21:54.384Z,15.5
2018-12-17T07:22:56.849Z,15.6
2018-12-17T07:23:59.198Z,15.7
2018-12-17T07:25:01.871Z,15.7
2018-12-17T07:26:04.302Z,15.6
2018-12-17T07:27:06.753Z,15.6
2018-12-17T07:28:08.974Z,15.7
2018-12-17T07:29:11.460Z,15.6
2018-12-17T07:30:13.906Z,15.7
2018-12-17T07:31:16.351Z,15.5
2018-12-17T07:32:19.237Z,15.5
2018-12-17T07:33:21.658Z,15.6
2018-12-17T07:34:23.814Z,15.5
2018-12-17T07:35:26.233Z,15.6
2018-12-17T07:36:28.710Z,15.6
2018-12-17T07:37:30.846Z,15.7
2018-12-17T07:38:32.972Z,15.7
2018-12-17T07:39:34.562Z,15.6
2018-12-17T07:40:36.732Z,15.5
2018-12-17T07:41:39.159Z,15.6
2018-12-17T07:42:41.584Z,15.6
2018-12-17T07:43:44.015Z,15.5
2018-12-17T07:44:46.167Z,15.7
2018-12-17T07:45:48.303Z,15.8
2018-12-17T07:46:50.447Z,15.6
2018-12-17T07:47:52.349Z,15.6
2018-12-17T07:48:54.495Z,15.8
2018-12-17T07:49:56.713Z,15.7
2018-12-17T07:50:58.861Z,15.6
2018-12-17T07:52:01.299Z,15.7
2018-12-17T07:53:03.739Z,15.4
2018-12-17T07:54:05.623Z,15.4
2018-12-17T07:55:08.050Z,15.7
2018-12-17T07:56:10.211Z,15.6
2018-12-17T07:57:12.635Z,15.6
2018-12-17T07:58:14.275Z,15.7
2018-12-17T07:59:15.883Z,15.6
2018-12-17T08:00:18.328Z,15.5
2018-12-17T08:01:20.452Z,15.6
2018-12-17T08:02:22.350Z,15.6
2018-12-17T08:03:24.551Z,15.5
2018-12-17T08:04:26.975Z,15.6
2018-12-17T08:05:29.412Z,15.5
2018-12-17T08:06:31.559Z,15.5
2018-12-17T08:07:33.723Z,15.5
2018-12-17T08:08:36.297Z,15.6
2018-12-17T08:09:38.468Z,15.5
2018-12-17T08:10:40.897Z,15.4
2018-12-17T08:11:43.045Z,15.5
2018-12-17T08:12:45.462Z,15.5
2018-12-17T08:13:47.065Z,15.6
2018-12-17T08:14:49.524Z,15.4
2018-12-17T08:15:51.649Z,15.5
2018-12-17T08:16:53.792Z,15.4
2018-12-17T08:17:56.221Z,15.5
2018-12-17T08:18:58.649Z,15.5
2018-12-17T08:20:00.814Z,15.4
2018-12-17T08:21:03.244Z,15.6
2018-12-17T08:22:05.664Z,15.6
2018-12-17T08:23:07.821Z,15.5
2018-12-17T08:24:10.251Z,15.6
2018-12-17T08:25:12.701Z,15.6
2018-12-17T08:26:15.149Z,15.5
2018-12-17T08:27:17.307Z,15.6
2018-12-17T08:28:19.480Z,15.5
2018-12-17T08:29:21.909Z,15.5
2018-12-17T08:30:24.093Z,15.4
2018-12-17T08:31:26.245Z,15.6
2018-12-17T08:32:28.400Z,15.7
2018-12-17T08:33:30.298Z,15.6
2018-12-17T08:34:32.713Z,15.4
2018-12-17T08:35:35.144Z,15.3
2018-12-17T08:36:37.271Z,15.6
2018-12-17T08:37:39.762Z,15.5
2018-12-17T08:38:41.926Z,15.3
2018-12-17T08:39:44.082Z,15.5
2018-12-17T08:40:46.505Z,15.7
2018-12-17T08:41:48.938Z,15.4
2018-12-17T08:42:51.370Z,15.6
2018-12-17T08:43:53.816Z,15.6
2018-12-17T08:44:56.020Z,15.5
2018-12-17T08:45:58.453Z,15.5
2018-12-17T08:47:00.342Z,15.5
2018-12-17T08:48:02.827Z,15.4
2018-12-17T08:49:05.263Z,15.5
2018-12-17T08:50:07.412Z,15.6
2018-12-17T08:51:09.842Z,15.5
2018-12-17T08:52:11.740Z,15.4
2018-12-17T08:53:13.614Z,15.5
2018-12-17T08:54:16.041Z,15.4
2018-12-17T08:55:18.193Z,15.6
2018-12-17T08:56:20.352Z,15.4
2018-12-17T08:57:22.510Z,15.6
2018-12-17T08:58:24.929Z,15.5
2018-12-17T08:59:27.354Z,15.6
2018-12-17T09:00:29.778Z,15.5
2018-12-17T09:01:32.200Z,15.5
2018-12-17T09:02:34.626Z,15.5
2018-12-17T09:03:36.795Z,15.4
2018-12-17T09:04:39.219Z,15.4
2018-12-17T09:05:41.642Z,15.6
2018-12-17T09:06:44.082Z,15.4
2018-12-17T09:07:46.235Z,15.7
2018-12-17T09:08:48.671Z,15.3
2018-12-17T09:09:51.090Z,15.4
2018-12-17T09:10:53.250Z,15.4
2018-12-17T09:11:55.400Z,15.5
2018-12-17T09:12:57.570Z,15.3
2018-12-17T09:13:59.999Z,15.7
2018-12-17T09:15:01.582Z,15.6
2018-12-17T09:16:03.470Z,15.5
2018-12-17T09:17:05.623Z,15.6
2018-12-17T09:18:08.044Z,15.5
2018-12-17T09:19:10.462Z,15.6
2018-12-17T09:20:12.887Z,15.4
2018-12-17T09:21:15.047Z,15.6
2018-12-17T09:22:16.902Z,15.5
2018-12-17T09:23:19.328Z,15.7
2018-12-17T09:24:21.209Z,15.6
2018-12-17T09:25:23.378Z,15.5
2018-12-17T09:26:25.864Z,15.5
2018-12-17T09:27:27.756Z,15.5
2018-12-17T09:28:30.178Z,15.6
2018-12-17T09:29:32.337Z,15.5
2018-12-17T09:31:39.737Z,15.3
2018-12-17T09:32:42.168Z,15.4
2018-12-17T09:33:44.609Z,15.3
2018-12-17T09:34:47.016Z,15.4
2018-12-17T09:35:49.181Z,15.3
2018-12-17T09:36:51.623Z,15.5
2018-12-17T09:37:54.056Z,15.5
2018-12-17T09:38:56.504Z,15.5
2018-12-17T09:39:58.931Z,15.5
2018-12-17T09:41:00.813Z,15.5
2018-12-17T09:42:03.252Z,15.4
2018-12-17T09:43:05.674Z,15.4
2018-12-17T09:44:08.110Z,15.5
2018-12-17T09:45:10.274Z,15.3
2018-12-17T09:46:12.157Z,15.5
2018-12-17T09:47:14.304Z,15.4
2018-12-17T09:48:16.463Z,15.5
2018-12-17T09:49:18.624Z,15.5
2018-12-17T09:50:21.052Z,15.3
2018-12-17T09:51:23.253Z,15.5
2018-12-17T09:52:25.733Z,15.5
2018-12-17T09:53:28.153Z,15.6
2018-12-17T09:54:30.291Z,15.3
2018-12-17T09:55:32.463Z,15.5
2018-12-17T09:56:34.616Z,15.4
2018-12-17T09:57:36.771Z,15.4
2018-12-17T09:58:39.204Z,15.5
2018-12-17T09:59:56.293Z,15.4
2018-12-17T10:00:58.723Z,15.3
2018-12-17T10:02:01.141Z,15.5
2018-12-17T10:03:03.319Z,15.5
2018-12-17T10:04:05.452Z,15.6
2018-12-17T10:05:07.879Z,15.5
2018-12-17T10:06:10.312Z,15.4
2018-12-17T10:07:12.733Z,15.6
2018-12-17T10:08:15.168Z,15.5
2018-12-17T10:09:17.049Z,15.5
2018-12-17T10:10:19.477Z,15.4
2018-12-17T10:11:21.632Z,15.4
2018-12-17T10:12:24.080Z,15.3
2018-12-17T10:13:26.223Z,15.6
2018-12-17T10:14:28.093Z,15.5
2018-12-17T10:15:30.522Z,15.5
2018-12-17T10:16:32.689Z,15.4
2018-12-17T10:17:34.926Z,15.5
2018-12-17T10:18:37.592Z,15.4
2018-12-17T10:19:40.192Z,15.4
2018-12-17T10:20:42.076Z,15.5
2018-12-17T10:21:44.499Z,15.4
2018-12-17T10:22:46.938Z,15.5
2018-12-17T10:23:49.366Z,15.4
2018-12-17T10:24:51.524Z,15.5
2018-12-17T10:25:53.693Z,15.6
2018-12-17T10:26:56.116Z,15.4
2018-12-17T10:27:57.995Z,15.4
2018-12-17T10:28:59.860Z,15.4
2018-12-17T10:30:02.036Z,15.5
2018-12-17T10:31:03.995Z,15.3
2018-12-17T10:32:06.118Z,15.4
2018-12-17T10:33:08.535Z,15.5
2018-12-17T10:34:10.700Z,15.5
2018-12-17T10:35:13.132Z,15.4
2018-12-17T10:36:15.302Z,15.4
2018-12-17T10:37:17.472Z,15.3
2018-12-17T10:38:19.346Z,15.3
2018-12-17T10:39:21.777Z,15.4
2018-12-17T10:40:24.201Z,15.3
2018-12-17T10:41:26.634Z,15.4
2018-12-17T10:42:28.792Z,15.4
2018-12-17T10:43:31.220Z,15.5
2018-12-17T10:44:33.641Z,15.5
2018-12-17T10:45:35.528Z,15.4
2018-12-17T10:46:37.971Z,15.4
2018-12-17T10:47:40.123Z,15.4
2018-12-17T10:48:42.549Z,15.3
2018-12-17T10:49:44.970Z,15.5
2018-12-17T10:50:47.389Z,15.4
2018-12-17T10:51:49.807Z,15.4
2018-12-17T10:52:52.240Z,15.6
2018-12-17T10:53:54.392Z,15.5
2018-12-17T10:54:56.823Z,15.4
2018-12-17T10:55:59.261Z,15.4
2018-12-17T10:57:01.141Z,15.5
2018-12-17T10:58:03.566Z,15.4
2018-12-17T10:59:05.702Z,15.5
2018-12-17T11:00:08.121Z,15.5
2018-12-17T11:01:10.568Z,15.6
2018-12-17T11:02:12.732Z,15.3
2018-12-17T11:03:15.155Z,15.6
2018-12-17T11:04:17.572Z,15.5
2018-12-17T11:05:19.728Z,15.3
2018-12-17T11:06:22.160Z,15.5
2018-12-17T11:07:24.322Z,15.3
2018-12-17T11:08:26.738Z,15.4
2018-12-17T11:09:29.162Z,15.4
2018-12-17T11:10:31.588Z,15.6
2018-12-17T11:11:34.000Z,15.5
2018-12-17T11:12:36.131Z,15.6
2018-12-17T11:13:38.300Z,15.4
2018-12-17T11:14:40.722Z,15.5
2018-12-17T11:15:43.150Z,15.5
2018-12-17T11:16:45.308Z,15.3
2018-12-17T11:17:47.460Z,15.3
2018-12-17T11:18:49.614Z,15.4
2018-12-17T11:19:51.776Z,15.5
2018-12-17T11:20:54.264Z,15.6
2018-12-17T11:21:56.703Z,15.4
2018-12-17T11:22:59.132Z,15.4
2018-12-17T11:24:01.270Z,15.4
2018-12-17T11:25:03.453Z,15.3
2018-12-17T11:26:05.597Z,15.4
2018-12-17T11:27:07.752Z,15.4
2018-12-17T11:28:10.181Z,15.4
2018-12-17T11:29:12.598Z,15.3
2018-12-17T11:30:14.744Z,15.4
2018-12-17T11:31:16.640Z,15.4
2018-12-17T11:32:18.809Z,15.5
2018-12-17T11:33:21.253Z,15.3
2018-12-17T11:34:23.671Z,15.4
2018-12-17T11:35:26.105Z,15.4
2018-12-17T11:36:28.541Z,15.4
2018-12-17T11:37:30.695Z,15.3
2018-12-17T11:38:33.125Z,15.4
2018-12-17T11:39:35.550Z,15.3
2018-12-17T11:40:37.984Z,15.3
2018-12-17T11:41:40.124Z,15.5
2018-12-17T11:42:42.552Z,15.4
2018-12-17T11:43:44.977Z,15.5
2018-12-17T11:44:47.135Z,15.4
2018-12-17T11:45:49.562Z,15.5
2018-12-17T11:46:51.718Z,15.3
2018-12-17T11:47:53.881Z,15.5
2018-12-17T11:48:56.310Z,15.4
2018-12-17T11:49:58.205Z,15.5
2018-12-17T11:51:00.613Z,15.4
2018-12-17T11:52:02.773Z,15.4
2018-12-17T11:53:04.936Z,15.5
2018-12-17T11:54:07.355Z,15.5
2018-12-17T11:55:09.517Z,15.4
2018-12-17T11:56:11.688Z,15.3
2018-12-17T11:57:13.852Z,15.4
2018-12-17T11:58:16.277Z,15.4
2018-12-17T11:59:18.698Z,15.4
2018-12-17T12:00:20.858Z,15.4
2018-12-17T12:01:23.278Z,15.5
2018-12-17T12:02:25.712Z,15.3
2018-12-17T12:03:27.869Z,15.3
2018-12-17T12:04:30.301Z,15.3
2018-12-17T12:05:32.543Z,15.3
2018-12-17T12:06:34.703Z,15.3
2018-12-17T12:07:36.832Z,15.5
2018-12-17T12:08:39.255Z,15.3
2018-12-17T12:09:41.428Z,15.5
2018-12-17T12:10:43.842Z,15.4
2018-12-17T12:11:46.285Z,15.3
2018-12-17T12:12:48.167Z,15.3
2018-12-17T12:13:50.592Z,15.5
2018-12-17T12:14:52.748Z,15.4
2018-12-17T12:15:55.182Z,15.4
2018-12-17T12:16:57.630Z,15.5
2018-12-17T12:17:59.768Z,15.3
2018-12-17T12:19:02.200Z,15.5
2018-12-17T12:20:04.652Z,15.3
2018-12-17T12:21:07.078Z,15.3
2018-12-17T12:22:09.513Z,15.5
2018-12-17T12:23:11.388Z,15.6
2018-12-17T12:24:13.539Z,15.4
2018-12-17T12:25:15.970Z,15.4
2018-12-17T12:26:18.406Z,15.4
2018-12-17T12:27:20.546Z,15.3
2018-12-17T12:28:22.978Z,15.3
2018-12-17T12:29:25.142Z,15.4
2018-12-17T12:30:27.572Z,15.4
2018-12-17T12:31:30.005Z,15.5
2018-12-17T12:32:31.889Z,15.5
2018-12-17T12:33:34.311Z,15.3
2018-12-17T12:34:36.441Z,15.4
2018-12-17T12:35:38.871Z,15.5
2018-12-17T12:36:41.293Z,15.5
2018-12-17T12:37:43.481Z,15.5
2018-12-17T12:38:45.654Z,15.5
2018-12-17T12:39:47.813Z,15.5
2018-12-17T12:40:49.973Z,15.6
2018-12-17T12:41:52.113Z,15.5
2018-12-17T12:42:54.268Z,15.5
2018-12-17T12:43:56.424Z,15.6
2018-12-17T12:44:58.578Z,15.3
2018-12-17T12:46:00.722Z,15.5
2018-12-17T12:47:02.871Z,15.3
2018-12-17T12:48:05.320Z,15.4
2018-12-17T12:49:07.465Z,15.4
2018-12-17T12:50:09.891Z,15.4
2018-12-17T12:51:12.329Z,15.5
2018-12-17T12:52:14.750Z,15.4
2018-12-17T12:53:17.181Z,15.4
2018-12-17T12:54:19.346Z,15.4
2018-12-17T12:55:21.527Z,15.5
2018-12-17T12:56:23.690Z,15.4
2018-12-17T12:57:26.140Z,15.5
2018-12-17T12:58:28.310Z,15.3
2018-12-17T12:59:30.470Z,15.3
2018-12-17T13:00:32.357Z,15.3
2018-12-17T13:01:34.794Z,15.4
2018-12-17T13:02:36.413Z,15.4
2018-12-17T13:03:38.833Z,15.4
2018-12-17T13:04:41.267Z,15.4
2018-12-17T13:05:43.423Z,15.5
2018-12-17T13:06:45.865Z,15.4
2018-12-17T13:07:48.015Z,15.5
2018-12-17T13:08:50.234Z,15.3
2018-12-17T13:09:52.663Z,15.4
2018-12-17T13:10:55.097Z,15.5
2018-12-17T13:11:57.230Z,15.5
2018-12-17T13:12:59.663Z,15.4
2018-12-17T13:14:02.109Z,15.4
2018-12-17T13:15:04.254Z,15.3
2018-12-17T13:16:06.401Z,15.4
2018-12-17T13:17:08.861Z,15.4
2018-12-17T13:18:11.283Z,15.3
2018-12-17T13:19:13.182Z,15.4
2018-12-17T13:20:15.086Z,15.5
2018-12-17T13:21:17.274Z,15.5
2018-12-17T13:22:19.149Z,15.3
2018-12-17T13:23:21.313Z,15.5
2018-12-17T13:24:23.741Z,15.4
2018-12-17T13:25:26.216Z,15.4
2018-12-17T13:26:28.382Z,15.5
2018-12-17T13:27:30.555Z,15.4
2018-12-17T13:28:32.983Z,15.4
2018-12-17T13:29:35.413Z,15.4
2018-12-17T13:30:37.570Z,15.3
2018-12-17T13:31:40.027Z,15.3
2018-12-17T13:32:42.451Z,15.4
2018-12-17T13:33:44.594Z,15.3
2018-12-17T13:34:47.024Z,15.3
2018-12-17T13:35:49.456Z,15.4
2018-12-17T13:36:51.871Z,15.5
2018-12-17T13:37:54.304Z,15.4
2018-12-17T13:38:56.471Z,15.5
2018-12-17T13:39:58.907Z,15.4
2018-12-17T13:41:01.068Z,15.4
2018-12-17T13:42:03.235Z,15.5
2018-12-17T13:43:05.362Z,15.4
2018-12-17T13:44:07.229Z,15.6
2018-12-17T13:45:09.410Z,15.3
2018-12-17T13:46:11.841Z,15.4
2018-12-17T13:47:14.011Z,15.5
2018-12-17T13:48:15.901Z,15.4
2018-12-17T13:49:18.064Z,15.5
2018-12-17T13:50:20.233Z,15.5
2018-12-17T13:51:22.664Z,15.5
2018-12-17T13:52:24.842Z,15.4
2018-12-17T13:53:26.987Z,15.3